PWSweather.com
Personal Weather Stations
Station Observations
BULSHOEK
ClanwilliamZA

ClanwilliamZA

Lat: -32.003, Lon: 18.782

Elevation: 213

Station Type: Davis Vantage Pro

High Low Average
Temperature 101.8°F38.8°C 64.2°F17.9°C 81.1°F27.3°C
Dew Point 64.8°F18.2°C 58.0°F14.4°C 60.5°F15.8°C
Winds 8.0 mph 12.9 kmh Calm Calm 1.0 mph WSW1.6 kmh WSW
Wind Gusts 15.0 mph24.1 kmh -- 5.0 mph8.0 kmh
Humidity 82% 26% 54%
Pressure 29.80 in1009.1 mb 29.63 in1003.4 mb -
Precipitation 0.00 in0.0 mm - -
Hour Temp Dew Point Humidity Winds Wind Gusts Pressure Precip Precip Rate Daily Precip Total
12:00 AM 75.0°F23.9°C 59.2°F15.1°C 58% Calm Calm -- 29.79 in1008.8 mb 0.00 in0.0 mm 0.00 in0.0 mm 0.00 in0.0 mm
12:05 AM 74.8°F23.8°C 59.0°F15.0°C 58% Calm Calm -- 29.79 in1008.8 mb 0.00 in0.0 mm 0.00 in0.0 mm 0.00 in0.0 mm
12:10 AM 74.4°F23.6°C 58.6°F14.8°C 58% Calm Calm -- 29.79 in1008.8 mb 0.00 in0.0 mm 0.00 in0.0 mm 0.00 in0.0 mm
12:15 AM 74.2°F23.4°C 58.9°F14.9°C 59% Calm Calm -- 29.78 in1008.5 mb 0.00 in0.0 mm 0.00 in0.0 mm 0.00 in0.0 mm
12:20 AM 74.2°F23.4°C 59.4°F15.2°C 60% Calm Calm 1.0 mph1.6 kmh 29.78 in1008.5 mb 0.00 in0.0 mm 0.00 in0.0 mm 0.00 in0.0 mm
12:25 AM 74.4°F23.6°C 59.6°F15.3°C 60% Calm Calm 1.0 mph1.6 kmh 29.78 in1008.5 mb 0.00 in0.0 mm 0.00 in0.0 mm 0.00 in0.0 mm
12:30 AM 74.7°F23.7°C 59.9°F15.5°C 60% Calm Calm 2.0 mph3.2 kmh 29.78 in1008.5 mb 0.00 in0.0 mm 0.00 in0.0 mm 0.00 in0.0 mm
12:35 AM 75.1°F23.9°C 59.8°F15.4°C 59% Calm Calm 3.0 mph4.8 kmh 29.78 in1008.5 mb 0.00 in0.0 mm 0.00 in0.0 mm 0.00 in0.0 mm
12:40 AM 75.6°F24.2°C 59.8°F15.4°C 58% 1.0 mph NNW1.6 kmh NNW 5.0 mph8.0 kmh 29.78 in1008.5 mb 0.00 in0.0 mm 0.00 in0.0 mm 0.00 in0.0 mm
12:45 AM 75.7°F24.3°C 59.4°F15.2°C 57% 2.0 mph NNW3.2 kmh NNW 8.0 mph12.9 kmh 29.78 in1008.5 mb 0.00 in0.0 mm 0.00 in0.0 mm 0.00 in0.0 mm
12:50 AM 75.3°F24.1°C 59.0°F15.0°C 57% 2.0 mph NNW3.2 kmh NNW 8.0 mph12.9 kmh 29.78 in1008.5 mb 0.00 in0.0 mm 0.00 in0.0 mm 0.00 in0.0 mm
12:55 AM 74.4°F23.6°C 58.6°F14.8°C 58% 1.0 mph NW1.6 kmh NW 6.0 mph9.7 kmh 29.78 in1008.5 mb 0.00 in0.0 mm 0.00 in0.0 mm 0.00 in0.0 mm
01:00 AM 73.5°F23.1°C 58.7°F14.8°C 60% 2.0 mph NNW3.2 kmh NNW 8.0 mph12.9 kmh 29.79 in1008.8 mb 0.00 in0.0 mm 0.00 in0.0 mm 0.00 in0.0 mm
01:05 AM 72.7°F22.6°C 58.5°F14.7°C 61% 2.0 mph NW3.2 kmh NW 10.0 mph16.1 kmh 29.79 in1008.8 mb 0.00 in0.0 mm 0.00 in0.0 mm 0.00 in0.0 mm
01:10 AM 72.1°F22.3°C 58.3°F14.6°C 62% 1.0 mph NW1.6 kmh NW 7.0 mph11.3 kmh 29.79 in1008.8 mb 0.00 in0.0 mm 0.00 in0.0 mm 0.00 in0.0 mm
01:15 AM 71.7°F22.1°C 58.4°F14.7°C 63% 1.0 mph NW1.6 kmh NW 6.0 mph9.7 kmh 29.79 in1008.8 mb 0.00 in0.0 mm 0.00 in0.0 mm 0.00 in0.0 mm
01:20 AM 71.2°F21.8°C 58.4°F14.7°C 64% 2.0 mph WNW3.2 kmh WNW 9.0 mph14.5 kmh 29.79 in1008.8 mb 0.00 in0.0 mm 0.00 in0.0 mm 0.00 in0.0 mm
01:25 AM 70.9°F21.6°C 58.5°F14.7°C 65% 1.0 mph WNW1.6 kmh WNW 7.0 mph11.3 kmh 29.79 in1008.8 mb 0.00 in0.0 mm 0.00 in0.0 mm 0.00 in0.0 mm
01:30 AM 70.6°F21.4°C 58.7°F14.8°C 66% 2.0 mph NW3.2 kmh NW 7.0 mph11.3 kmh 29.79 in1008.8 mb 0.00 in0.0 mm 0.00 in0.0 mm 0.00 in0.0 mm
01:35 AM 70.4°F21.3°C 58.5°F14.7°C 66% 2.0 mph WNW3.2 kmh WNW 6.0 mph9.7 kmh 29.79 in1008.8 mb 0.00 in0.0 mm 0.00 in0.0 mm 0.00 in0.0 mm
01:40 AM 70.0°F21.1°C 58.5°F14.7°C 67% 3.0 mph NW4.8 kmh NW 9.0 mph14.5 kmh 29.79 in1008.8 mb 0.00 in0.0 mm 0.00 in0.0 mm 0.00 in0.0 mm
01:45 AM 69.7°F20.9°C 58.2°F14.6°C 67% 2.0 mph NW3.2 kmh NW 6.0 mph9.7 kmh 29.80 in1009.1 mb 0.00 in0.0 mm 0.00 in0.0 mm 0.00 in0.0 mm
01:50 AM 69.3°F20.7°C 58.3°F14.6°C 68% 2.0 mph NNW3.2 kmh NNW 8.0 mph12.9 kmh 29.80 in1009.1 mb 0.00 in0.0 mm 0.00 in0.0 mm 0.00 in0.0 mm
01:55 AM 69.1°F20.6°C 58.5°F14.7°C 69% 3.0 mph WNW4.8 kmh WNW 9.0 mph14.5 kmh 29.80 in1009.1 mb 0.00 in0.0 mm 0.00 in0.0 mm 0.00 in0.0 mm
02:00 AM 68.7°F20.4°C 58.1°F14.5°C 69% 4.0 mph NW6.4 kmh NW 10.0 mph16.1 kmh 29.80 in1009.1 mb 0.00 in0.0 mm 0.00 in0.0 mm 0.00 in0.0 mm
02:05 AM 68.4°F20.2°C 58.2°F14.6°C 70% 3.0 mph NW4.8 kmh NW 8.0 mph12.9 kmh 29.80 in1009.1 mb 0.00 in0.0 mm 0.00 in0.0 mm 0.00 in0.0 mm
02:10 AM 68.2°F20.1°C 58.0°F14.4°C 70% 2.0 mph NW3.2 kmh NW 8.0 mph12.9 kmh 29.80 in1009.1 mb 0.00 in0.0 mm 0.00 in0.0 mm 0.00 in0.0 mm
02:15 AM 68.1°F20.1°C 58.3°F14.6°C 71% 2.0 mph NNW3.2 kmh NNW 9.0 mph14.5 kmh 29.80 in1009.1 mb 0.00 in0.0 mm 0.00 in0.0 mm 0.00 in0.0 mm
02:20 AM 67.9°F19.9°C 58.1°F14.5°C 71% 2.0 mph NNW3.2 kmh NNW 11.0 mph17.7 kmh 29.80 in1009.1 mb 0.00 in0.0 mm 0.00 in0.0 mm 0.00 in0.0 mm
02:25 AM 67.8°F19.9°C 58.4°F14.7°C 72% 1.0 mph NNW1.6 kmh NNW 8.0 mph12.9 kmh 29.80 in1009.1 mb 0.00 in0.0 mm 0.00 in0.0 mm 0.00 in0.0 mm
02:30 AM 67.8°F19.9°C 58.4°F14.7°C 72% 1.0 mph NW1.6 kmh NW 5.0 mph8.0 kmh 29.79 in1008.8 mb 0.00 in0.0 mm 0.00 in0.0 mm 0.00 in0.0 mm
02:35 AM 67.9°F19.9°C 58.9°F14.9°C 73% 1.0 mph NNW1.6 kmh NNW 4.0 mph6.4 kmh 29.79 in1008.8 mb 0.00 in0.0 mm 0.00 in0.0 mm 0.00 in0.0 mm
02:40 AM 68.2°F20.1°C 58.8°F14.9°C 72% 1.0 mph NNW1.6 kmh NNW 8.0 mph12.9 kmh 29.79 in1008.8 mb 0.00 in0.0 mm 0.00 in0.0 mm 0.00 in0.0 mm
02:45 AM 68.0°F20.0°C 58.6°F14.8°C 72% 2.0 mph NNW3.2 kmh NNW 6.0 mph9.7 kmh 29.79 in1008.8 mb 0.00 in0.0 mm 0.00 in0.0 mm 0.00 in0.0 mm
02:50 AM 67.8°F19.9°C 58.4°F14.7°C 72% Calm Calm 2.0 mph3.2 kmh 29.79 in1008.8 mb 0.00 in0.0 mm 0.00 in0.0 mm 0.00 in0.0 mm
02:55 AM 67.9°F19.9°C 58.9°F14.9°C 73% 1.0 mph NW1.6 kmh NW 7.0 mph11.3 kmh 29.79 in1008.8 mb 0.00 in0.0 mm 0.00 in0.0 mm 0.00 in0.0 mm
03:00 AM 67.7°F19.8°C 58.3°F14.6°C 72% Calm Calm 1.0 mph1.6 kmh 29.79 in1008.8 mb 0.00 in0.0 mm 0.00 in0.0 mm 0.00 in0.0 mm
03:05 AM 67.6°F19.8°C 58.2°F14.6°C 72% Calm Calm 2.0 mph3.2 kmh 29.79 in1008.8 mb 0.00 in0.0 mm 0.00 in0.0 mm 0.00 in0.0 mm
03:10 AM 67.6°F19.8°C 58.2°F14.6°C 72% Calm Calm 1.0 mph1.6 kmh 29.79 in1008.8 mb 0.00 in0.0 mm 0.00 in0.0 mm 0.00 in0.0 mm
03:15 AM 67.6°F19.8°C 58.2°F14.6°C 72% Calm Calm 2.0 mph3.2 kmh 29.78 in1008.5 mb 0.00 in0.0 mm 0.00 in0.0 mm 0.00 in0.0 mm
03:20 AM 67.4°F19.7°C 58.1°F14.5°C 72% Calm Calm 5.0 mph8.0 kmh 29.78 in1008.5 mb 0.00 in0.0 mm 0.00 in0.0 mm 0.00 in0.0 mm
03:25 AM 67.2°F19.6°C 58.2°F14.6°C 73% 3.0 mph NW4.8 kmh NW 8.0 mph12.9 kmh 29.78 in1008.5 mb 0.00 in0.0 mm 0.00 in0.0 mm 0.00 in0.0 mm
03:30 AM 67.1°F19.5°C 58.5°F14.7°C 74% 2.0 mph W3.2 kmh W 8.0 mph12.9 kmh 29.78 in1008.5 mb 0.00 in0.0 mm 0.00 in0.0 mm 0.00 in0.0 mm
03:35 AM 67.2°F19.6°C 58.6°F14.8°C 74% 2.0 mph NNW3.2 kmh NNW 8.0 mph12.9 kmh 29.78 in1008.5 mb 0.00 in0.0 mm 0.00 in0.0 mm 0.00 in0.0 mm
03:40 AM 67.1°F19.5°C 58.5°F14.7°C 74% 1.0 mph NNW1.6 kmh NNW 4.0 mph6.4 kmh 29.78 in1008.5 mb 0.00 in0.0 mm 0.00 in0.0 mm 0.00 in0.0 mm
03:45 AM 67.2°F19.6°C 59.0°F15.0°C 75% 1.0 mph NNW1.6 kmh NNW 4.0 mph6.4 kmh 29.78 in1008.5 mb 0.00 in0.0 mm 0.00 in0.0 mm 0.00 in0.0 mm
03:50 AM 67.0°F19.4°C 58.8°F14.9°C 75% Calm Calm 1.0 mph1.6 kmh 29.78 in1008.5 mb 0.00 in0.0 mm 0.00 in0.0 mm 0.00 in0.0 mm
03:55 AM 67.0°F19.4°C 58.8°F14.9°C 75% Calm Calm 1.0 mph1.6 kmh 29.78 in1008.5 mb 0.00 in0.0 mm 0.00 in0.0 mm 0.00 in0.0 mm
04:00 AM 67.0°F19.4°C 58.8°F14.9°C 75% Calm Calm 4.0 mph6.4 kmh 29.77 in1008.1 mb 0.00 in0.0 mm 0.00 in0.0 mm 0.00 in0.0 mm
04:10 AM 66.9°F19.4°C 58.7°F14.8°C 75% Calm Calm 4.0 mph6.4 kmh 29.77 in1008.1 mb 0.00 in0.0 mm 0.00 in0.0 mm 0.00 in0.0 mm
04:15 AM 66.8°F19.3°C 58.6°F14.8°C 75% Calm Calm -- 29.77 in1008.1 mb 0.00 in0.0 mm 0.00 in0.0 mm 0.00 in0.0 mm
04:20 AM 66.8°F19.3°C 58.6°F14.8°C 75% Calm Calm 2.0 mph3.2 kmh 29.77 in1008.1 mb 0.00 in0.0 mm 0.00 in0.0 mm 0.00 in0.0 mm
04:25 AM 66.6°F19.2°C 58.4°F14.7°C 75% Calm Calm 5.0 mph8.0 kmh 29.77 in1008.1 mb 0.00 in0.0 mm 0.00 in0.0 mm 0.00 in0.0 mm
04:30 AM 66.5°F19.2°C 58.7°F14.8°C 76% Calm Calm -- 29.77 in1008.1 mb 0.00 in0.0 mm 0.00 in0.0 mm 0.00 in0.0 mm
04:35 AM 66.1°F18.9°C 58.3°F14.6°C 76% Calm Calm -- 29.77 in1008.1 mb 0.00 in0.0 mm 0.00 in0.0 mm 0.00 in0.0 mm
04:40 AM 66.1°F18.9°C 58.7°F14.8°C 77% Calm Calm 1.0 mph1.6 kmh 29.77 in1008.1 mb 0.00 in0.0 mm 0.00 in0.0 mm 0.00 in0.0 mm
04:45 AM 65.8°F18.8°C 58.4°F14.7°C 77% Calm Calm 2.0 mph3.2 kmh 29.77 in1008.1 mb 0.00 in0.0 mm 0.00 in0.0 mm 0.00 in0.0 mm
04:50 AM 65.8°F18.8°C 58.4°F14.7°C 77% Calm Calm 4.0 mph6.4 kmh 29.77 in1008.1 mb 0.00 in0.0 mm 0.00 in0.0 mm 0.00 in0.0 mm
04:55 AM 65.7°F18.7°C 58.6°F14.8°C 78% Calm Calm 4.0 mph6.4 kmh 29.77 in1008.1 mb 0.00 in0.0 mm 0.00 in0.0 mm 0.00 in0.0 mm
05:00 AM 65.7°F18.7°C 58.6°F14.8°C 78% Calm Calm 3.0 mph4.8 kmh 29.77 in1008.1 mb 0.00 in0.0 mm 0.00 in0.0 mm 0.00 in0.0 mm
05:05 AM 65.6°F18.7°C 58.5°F14.7°C 78% Calm Calm 2.0 mph3.2 kmh 29.77 in1008.1 mb 0.00 in0.0 mm 0.00 in0.0 mm 0.00 in0.0 mm
05:10 AM 65.4°F18.6°C 58.4°F14.7°C 78% Calm Calm 1.0 mph1.6 kmh 29.77 in1008.1 mb 0.00 in0.0 mm 0.00 in0.0 mm 0.00 in0.0 mm
05:15 AM 65.4°F18.6°C 58.7°F14.8°C 79% Calm Calm -- 29.78 in1008.5 mb 0.00 in0.0 mm 0.00 in0.0 mm 0.00 in0.0 mm
05:20 AM 65.2°F18.4°C 58.5°F14.7°C 79% Calm Calm 1.0 mph1.6 kmh 29.78 in1008.5 mb 0.00 in0.0 mm 0.00 in0.0 mm 0.00 in0.0 mm
05:25 AM 65.1°F18.4°C 58.4°F14.7°C 79% Calm Calm -- 29.78 in1008.5 mb 0.00 in0.0 mm 0.00 in0.0 mm 0.00 in0.0 mm
05:30 AM 65.0°F18.3°C 58.3°F14.6°C 79% Calm Calm -- 29.78 in1008.5 mb 0.00 in0.0 mm 0.00 in0.0 mm 0.00 in0.0 mm
05:35 AM 64.9°F18.3°C 58.6°F14.8°C 80% Calm Calm -- 29.78 in1008.5 mb 0.00 in0.0 mm 0.00 in0.0 mm 0.00 in0.0 mm
05:40 AM 64.9°F18.3°C 58.6°F14.8°C 80% Calm Calm -- 29.78 in1008.5 mb 0.00 in0.0 mm 0.00 in0.0 mm 0.00 in0.0 mm
05:45 AM 64.7°F18.2°C 58.4°F14.7°C 80% Calm Calm -- 29.78 in1008.5 mb 0.00 in0.0 mm 0.00 in0.0 mm 0.00 in0.0 mm
05:50 AM 64.6°F18.1°C 58.3°F14.6°C 80% Calm Calm -- 29.78 in1008.5 mb 0.00 in0.0 mm 0.00 in0.0 mm 0.00 in0.0 mm
05:55 AM 64.5°F18.1°C 58.2°F14.6°C 80% Calm Calm 1.0 mph1.6 kmh 29.78 in1008.5 mb 0.00 in0.0 mm 0.00 in0.0 mm 0.00 in0.0 mm
06:00 AM 64.4°F18.0°C 58.4°F14.7°C 81% Calm Calm -- 29.78 in1008.5 mb 0.00 in0.0 mm 0.00 in0.0 mm 0.00 in0.0 mm
06:05 AM 64.4°F18.0°C 58.4°F14.7°C 81% Calm Calm -- 29.78 in1008.5 mb 0.00 in0.0 mm 0.00 in0.0 mm 0.00 in0.0 mm
06:10 AM 64.3°F17.9°C 58.3°F14.6°C 81% Calm Calm -- 29.78 in1008.5 mb 0.00 in0.0 mm 0.00 in0.0 mm 0.00 in0.0 mm
06:15 AM 64.2°F17.9°C 58.2°F14.6°C 81% Calm Calm -- 29.79 in1008.8 mb 0.00 in0.0 mm 0.00 in0.0 mm 0.00 in0.0 mm
06:20 AM 64.2°F17.9°C 58.6°F14.8°C 82% Calm Calm 1.0 mph1.6 kmh 29.79 in1008.8 mb 0.00 in0.0 mm 0.00 in0.0 mm 0.00 in0.0 mm
06:25 AM 64.4°F18.0°C 58.4°F14.7°C 81% Calm Calm -- 29.79 in1008.8 mb 0.00 in0.0 mm 0.00 in0.0 mm 0.00 in0.0 mm
06:30 AM 64.5°F18.1°C 58.5°F14.7°C 81% Calm Calm 1.0 mph1.6 kmh 29.78 in1008.5 mb 0.00 in0.0 mm 0.00 in0.0 mm 0.00 in0.0 mm
06:35 AM 64.4°F18.0°C 58.4°F14.7°C 81% Calm Calm -- 29.78 in1008.5 mb 0.00 in0.0 mm 0.00 in0.0 mm 0.00 in0.0 mm
06:40 AM 64.6°F18.1°C 58.6°F14.8°C 81% Calm Calm 2.0 mph3.2 kmh 29.78 in1008.5 mb 0.00 in0.0 mm 0.00 in0.0 mm 0.00 in0.0 mm
06:45 AM 64.5°F18.1°C 58.5°F14.7°C 81% Calm Calm 3.0 mph4.8 kmh 29.79 in1008.8 mb 0.00 in0.0 mm 0.00 in0.0 mm 0.00 in0.0 mm
06:50 AM 64.7°F18.2°C 59.1°F15.1°C 82% Calm Calm 2.0 mph3.2 kmh 29.79 in1008.8 mb 0.00 in0.0 mm 0.00 in0.0 mm 0.00 in0.0 mm
06:55 AM 64.6°F18.1°C 58.6°F14.8°C 81% Calm Calm 3.0 mph4.8 kmh 29.79 in1008.8 mb 0.00 in0.0 mm 0.00 in0.0 mm 0.00 in0.0 mm
07:00 AM 64.5°F18.1°C 58.5°F14.7°C 81% Calm Calm 2.0 mph3.2 kmh 29.79 in1008.8 mb 0.00 in0.0 mm 0.00 in0.0 mm 0.00 in0.0 mm
07:05 AM 64.8°F18.2°C 59.2°F15.1°C 82% Calm Calm 3.0 mph4.8 kmh 29.79 in1008.8 mb 0.00 in0.0 mm 0.00 in0.0 mm 0.00 in0.0 mm
07:10 AM 64.7°F18.2°C 58.7°F14.8°C 81% Calm Calm -- 29.79 in1008.8 mb 0.00 in0.0 mm 0.00 in0.0 mm 0.00 in0.0 mm
07:15 AM 64.7°F18.2°C 59.1°F15.1°C 82% Calm Calm -- 29.80 in1009.1 mb 0.00 in0.0 mm 0.00 in0.0 mm 0.00 in0.0 mm
07:20 AM 64.9°F18.3°C 59.3°F15.2°C 82% Calm Calm 2.0 mph3.2 kmh 29.80 in1009.1 mb 0.00 in0.0 mm 0.00 in0.0 mm 0.00 in0.0 mm
07:25 AM 64.9°F18.3°C 58.9°F14.9°C 81% Calm Calm -- 29.80 in1009.1 mb 0.00 in0.0 mm 0.00 in0.0 mm 0.00 in0.0 mm
07:30 AM 65.3°F18.5°C 59.3°F15.2°C 81% Calm Calm -- 29.80 in1009.1 mb 0.00 in0.0 mm 0.00 in0.0 mm 0.00 in0.0 mm
07:35 AM 65.8°F18.8°C 59.8°F15.4°C 81% Calm Calm -- 29.80 in1009.1 mb 0.00 in0.0 mm 0.00 in0.0 mm 0.00 in0.0 mm
07:40 AM 66.1°F18.9°C 59.7°F15.4°C 80% Calm Calm -- 29.80 in1009.1 mb 0.00 in0.0 mm 0.00 in0.0 mm 0.00 in0.0 mm
07:45 AM 66.4°F19.1°C 60.0°F15.6°C 80% Calm Calm -- 29.80 in1009.1 mb 0.00 in0.0 mm 0.00 in0.0 mm 0.00 in0.0 mm
07:50 AM 67.1°F19.5°C 60.4°F15.8°C 79% Calm Calm 1.0 mph1.6 kmh 29.80 in1009.1 mb 0.00 in0.0 mm 0.00 in0.0 mm 0.00 in0.0 mm
07:55 AM 67.7°F19.8°C 60.2°F15.7°C 77% Calm Calm -- 29.80 in1009.1 mb 0.00 in0.0 mm 0.00 in0.0 mm 0.00 in0.0 mm
08:00 AM 68.2°F20.1°C 60.3°F15.7°C 76% Calm Calm 1.0 mph1.6 kmh 29.80 in1009.1 mb 0.00 in0.0 mm 0.00 in0.0 mm 0.00 in0.0 mm
08:05 AM 68.6°F20.3°C 60.4°F15.8°C 75% Calm Calm 2.0 mph3.2 kmh 29.80 in1009.1 mb 0.00 in0.0 mm 0.00 in0.0 mm 0.00 in0.0 mm
08:10 AM 68.9°F20.5°C 60.3°F15.7°C 74% Calm Calm -- 29.80 in1009.1 mb 0.00 in0.0 mm 0.00 in0.0 mm 0.00 in0.0 mm
08:15 AM 69.5°F20.8°C 60.8°F16.0°C 74% Calm Calm 1.0 mph1.6 kmh 29.80 in1009.1 mb 0.00 in0.0 mm 0.00 in0.0 mm 0.00 in0.0 mm
08:20 AM 69.9°F21.1°C 60.5°F15.8°C 72% Calm Calm -- 29.80 in1009.1 mb 0.00 in0.0 mm 0.00 in0.0 mm 0.00 in0.0 mm
08:25 AM 70.3°F21.3°C 60.8°F16.0°C 72% Calm Calm -- 29.80 in1009.1 mb 0.00 in0.0 mm 0.00 in0.0 mm 0.00 in0.0 mm
08:30 AM 71.0°F21.7°C 61.1°F16.2°C 71% Calm Calm 1.0 mph1.6 kmh 29.79 in1008.8 mb 0.00 in0.0 mm 0.00 in0.0 mm 0.00 in0.0 mm
08:35 AM 71.6°F22.0°C 61.3°F16.3°C 70% Calm Calm 1.0 mph1.6 kmh 29.79 in1008.8 mb 0.00 in0.0 mm 0.00 in0.0 mm 0.00 in0.0 mm
08:40 AM 72.1°F22.3°C 60.9°F16.1°C 68% Calm Calm 1.0 mph1.6 kmh 29.79 in1008.8 mb 0.00 in0.0 mm 0.00 in0.0 mm 0.00 in0.0 mm
08:45 AM 72.8°F22.7°C 61.2°F16.2°C 67% Calm Calm 2.0 mph3.2 kmh 29.78 in1008.5 mb 0.00 in0.0 mm 0.00 in0.0 mm 0.00 in0.0 mm
08:50 AM 73.5°F23.1°C 61.9°F16.6°C 67% Calm Calm 1.0 mph1.6 kmh 29.78 in1008.5 mb 0.00 in0.0 mm 0.00 in0.0 mm 0.00 in0.0 mm
08:55 AM 74.2°F23.4°C 61.7°F16.5°C 65% Calm Calm -- 29.78 in1008.5 mb 0.00 in0.0 mm 0.00 in0.0 mm 0.00 in0.0 mm
09:00 AM 74.9°F23.8°C 62.3°F16.8°C 65% Calm Calm -- 29.78 in1008.5 mb 0.00 in0.0 mm 0.00 in0.0 mm 0.00 in0.0 mm
09:05 AM 75.3°F24.1°C 62.3°F16.8°C 64% Calm Calm -- 29.78 in1008.5 mb 0.00 in0.0 mm 0.00 in0.0 mm 0.00 in0.0 mm
09:10 AM 76.3°F24.6°C 63.2°F17.3°C 64% Calm Calm -- 29.78 in1008.5 mb 0.00 in0.0 mm 0.00 in0.0 mm 0.00 in0.0 mm
09:15 AM 77.3°F25.2°C 63.2°F17.3°C 62% Calm Calm -- 29.78 in1008.5 mb 0.00 in0.0 mm 0.00 in0.0 mm 0.00 in0.0 mm
09:20 AM 78.1°F25.6°C 62.6°F17.0°C 59% Calm Calm -- 29.78 in1008.5 mb 0.00 in0.0 mm 0.00 in0.0 mm 0.00 in0.0 mm
09:25 AM 78.8°F26.0°C 62.3°F16.8°C 57% Calm Calm -- 29.78 in1008.5 mb 0.00 in0.0 mm 0.00 in0.0 mm 0.00 in0.0 mm
09:30 AM 79.3°F26.3°C 62.2°F16.8°C 56% Calm Calm -- 29.77 in1008.1 mb 0.00 in0.0 mm 0.00 in0.0 mm 0.00 in0.0 mm
09:35 AM 79.4°F26.3°C 62.8°F17.1°C 57% Calm Calm -- 29.77 in1008.1 mb 0.00 in0.0 mm 0.00 in0.0 mm 0.00 in0.0 mm
09:40 AM 79.9°F26.6°C 62.8°F17.1°C 56% Calm Calm -- 29.77 in1008.1 mb 0.00 in0.0 mm 0.00 in0.0 mm 0.00 in0.0 mm
09:45 AM 80.5°F26.9°C 63.8°F17.7°C 57% Calm Calm 1.0 mph1.6 kmh 29.77 in1008.1 mb 0.00 in0.0 mm 0.00 in0.0 mm 0.00 in0.0 mm
09:50 AM 81.2°F27.3°C 63.5°F17.5°C 55% Calm Calm 1.0 mph1.6 kmh 29.77 in1008.1 mb 0.00 in0.0 mm 0.00 in0.0 mm 0.00 in0.0 mm
09:55 AM 81.8°F27.7°C 63.0°F17.2°C 53% Calm Calm -- 29.77 in1008.1 mb 0.00 in0.0 mm 0.00 in0.0 mm 0.00 in0.0 mm
10:00 AM 82.1°F27.8°C 62.2°F16.8°C 51% Calm Calm 1.0 mph1.6 kmh 29.77 in1008.1 mb 0.00 in0.0 mm 0.00 in0.0 mm 0.00 in0.0 mm
10:05 AM 82.7°F28.2°C 62.7°F17.1°C 51% Calm Calm 1.0 mph1.6 kmh 29.77 in1008.1 mb 0.00 in0.0 mm 0.00 in0.0 mm 0.00 in0.0 mm
10:10 AM 83.6°F28.7°C 62.4°F16.9°C 49% Calm Calm 2.0 mph3.2 kmh 29.77 in1008.1 mb 0.00 in0.0 mm 0.00 in0.0 mm 0.00 in0.0 mm
10:15 AM 84.2°F29.0°C 62.9°F17.2°C 49% Calm Calm 1.0 mph1.6 kmh 29.76 in1007.8 mb 0.00 in0.0 mm 0.00 in0.0 mm 0.00 in0.0 mm
10:20 AM 84.3°F29.1°C 62.4°F16.9°C 48% Calm Calm 4.0 mph6.4 kmh 29.76 in1007.8 mb 0.00 in0.0 mm 0.00 in0.0 mm 0.00 in0.0 mm
10:25 AM 84.3°F29.1°C 61.8°F16.6°C 47% 1.0 mph WSW1.6 kmh WSW 7.0 mph11.3 kmh 29.76 in1007.8 mb 0.00 in0.0 mm 0.00 in0.0 mm 0.00 in0.0 mm
10:30 AM 84.8°F29.3°C 62.3°F16.8°C 47% Calm Calm 4.0 mph6.4 kmh 29.75 in1007.5 mb 0.00 in0.0 mm 0.00 in0.0 mm 0.00 in0.0 mm
10:35 AM 85.6°F29.8°C 63.0°F17.2°C 47% 1.0 mph NNW1.6 kmh NNW 7.0 mph11.3 kmh 29.75 in1007.5 mb 0.00 in0.0 mm 0.00 in0.0 mm 0.00 in0.0 mm
10:40 AM 86.5°F30.3°C 63.2°F17.3°C 46% 1.0 mph W1.6 kmh W 5.0 mph8.0 kmh 29.75 in1007.5 mb 0.00 in0.0 mm 0.00 in0.0 mm 0.00 in0.0 mm
10:45 AM 87.2°F30.7°C 62.6°F17.0°C 44% 1.0 mph WNW1.6 kmh WNW 6.0 mph9.7 kmh 29.75 in1007.5 mb 0.00 in0.0 mm 0.00 in0.0 mm 0.00 in0.0 mm
10:50 AM 87.9°F31.1°C 63.2°F17.3°C 44% Calm Calm 4.0 mph6.4 kmh 29.75 in1007.5 mb 0.00 in0.0 mm 0.00 in0.0 mm 0.00 in0.0 mm
10:55 AM 88.9°F31.6°C 62.8°F17.1°C 42% Calm Calm 3.0 mph4.8 kmh 29.75 in1007.5 mb 0.00 in0.0 mm 0.00 in0.0 mm 0.00 in0.0 mm
11:00 AM 89.5°F31.9°C 63.3°F17.4°C 42% Calm Calm 4.0 mph6.4 kmh 29.74 in1007.1 mb 0.00 in0.0 mm 0.00 in0.0 mm 0.00 in0.0 mm
11:05 AM 91.0°F32.8°C 63.3°F17.4°C 40% Calm Calm 1.0 mph1.6 kmh 29.74 in1007.1 mb 0.00 in0.0 mm 0.00 in0.0 mm 0.00 in0.0 mm
11:10 AM 91.4°F33.0°C 62.2°F16.8°C 38% Calm Calm 4.0 mph6.4 kmh 29.74 in1007.1 mb 0.00 in0.0 mm 0.00 in0.0 mm 0.00 in0.0 mm
11:15 AM 91.5°F33.1°C 63.0°F17.2°C 39% Calm Calm 4.0 mph6.4 kmh 29.74 in1007.1 mb 0.00 in0.0 mm 0.00 in0.0 mm 0.00 in0.0 mm
11:20 AM 92.5°F33.6°C 63.9°F17.7°C 39% Calm Calm 2.0 mph3.2 kmh 29.74 in1007.1 mb 0.00 in0.0 mm 0.00 in0.0 mm 0.00 in0.0 mm
11:25 AM 92.9°F33.8°C 62.7°F17.1°C 37% 1.0 mph WNW1.6 kmh WNW 7.0 mph11.3 kmh 29.74 in1007.1 mb 0.00 in0.0 mm 0.00 in0.0 mm 0.00 in0.0 mm
11:30 AM 94.1°F34.5°C 63.0°F17.2°C 36% Calm Calm 2.0 mph3.2 kmh 29.73 in1006.8 mb 0.00 in0.0 mm 0.00 in0.0 mm 0.00 in0.0 mm
11:35 AM 94.9°F34.9°C 62.9°F17.2°C 35% Calm Calm 1.0 mph1.6 kmh 29.73 in1006.8 mb 0.00 in0.0 mm 0.00 in0.0 mm 0.00 in0.0 mm
11:40 AM 95.2°F35.1°C 63.2°F17.3°C 35% Calm Calm 3.0 mph4.8 kmh 29.73 in1006.8 mb 0.00 in0.0 mm 0.00 in0.0 mm 0.00 in0.0 mm
11:45 AM 96.3°F35.7°C 63.3°F17.4°C 34% Calm Calm 6.0 mph9.7 kmh 29.73 in1006.8 mb 0.00 in0.0 mm 0.00 in0.0 mm 0.00 in0.0 mm
11:50 AM 96.5°F35.8°C 60.9°F16.1°C 31% 1.0 mph WNW1.6 kmh WNW 7.0 mph11.3 kmh 29.73 in1006.8 mb 0.00 in0.0 mm 0.00 in0.0 mm 0.00 in0.0 mm
11:55 AM 97.3°F36.3°C 62.4°F16.9°C 32% Calm Calm 5.0 mph8.0 kmh 29.73 in1006.8 mb 0.00 in0.0 mm 0.00 in0.0 mm 0.00 in0.0 mm
12:00 PM 97.2°F36.2°C 61.5°F16.4°C 31% Calm Calm 3.0 mph4.8 kmh 29.72 in1006.4 mb 0.00 in0.0 mm 0.00 in0.0 mm 0.00 in0.0 mm
12:05 PM 97.7°F36.5°C 61.0°F16.1°C 30% Calm Calm 5.0 mph8.0 kmh 29.72 in1006.4 mb 0.00 in0.0 mm 0.00 in0.0 mm 0.00 in0.0 mm
12:10 PM 99.0°F37.2°C 62.1°F16.7°C 30% Calm Calm 1.0 mph1.6 kmh 29.72 in1006.4 mb 0.00 in0.0 mm 0.00 in0.0 mm 0.00 in0.0 mm
12:15 PM 99.3°F37.4°C 61.4°F16.3°C 29% 1.0 mph WNW1.6 kmh WNW 6.0 mph9.7 kmh 29.72 in1006.4 mb 0.00 in0.0 mm 0.00 in0.0 mm 0.00 in0.0 mm
12:20 PM 98.8°F37.1°C 61.9°F16.6°C 30% 1.0 mph NNW1.6 kmh NNW 5.0 mph8.0 kmh 29.72 in1006.4 mb 0.00 in0.0 mm 0.00 in0.0 mm 0.00 in0.0 mm
12:25 PM 99.3°F37.4°C 63.3°F17.4°C 31% Calm Calm 7.0 mph11.3 kmh 29.72 in1006.4 mb 0.00 in0.0 mm 0.00 in0.0 mm 0.00 in0.0 mm
12:30 PM 99.2°F37.3°C 62.2°F16.8°C 30% 2.0 mph NNW3.2 kmh NNW 6.0 mph9.7 kmh 29.71 in1006.1 mb 0.00 in0.0 mm 0.00 in0.0 mm 0.00 in0.0 mm
12:35 PM 99.5°F37.5°C 61.5°F16.4°C 29% 1.0 mph NNW1.6 kmh NNW 6.0 mph9.7 kmh 29.71 in1006.1 mb 0.00 in0.0 mm 0.00 in0.0 mm 0.00 in0.0 mm
12:40 PM 100.3°F37.9°C 60.2°F15.7°C 27% 1.0 mph NW1.6 kmh NW 6.0 mph9.7 kmh 29.71 in1006.1 mb 0.00 in0.0 mm 0.00 in0.0 mm 0.00 in0.0 mm
12:45 PM 100.0°F37.8°C 61.0°F16.1°C 28% 1.0 mph NNW1.6 kmh NNW 8.0 mph12.9 kmh 29.70 in1005.8 mb 0.00 in0.0 mm 0.00 in0.0 mm 0.00 in0.0 mm
12:50 PM 100.0°F37.8°C 61.0°F16.1°C 28% 2.0 mph NW3.2 kmh NW 7.0 mph11.3 kmh 29.70 in1005.8 mb 0.00 in0.0 mm 0.00 in0.0 mm 0.00 in0.0 mm
12:55 PM 99.8°F37.7°C 60.8°F16.0°C 28% 1.0 mph WNW1.6 kmh WNW 8.0 mph12.9 kmh 29.70 in1005.8 mb 0.00 in0.0 mm 0.00 in0.0 mm 0.00 in0.0 mm
01:00 PM 99.9°F37.7°C 61.9°F16.6°C 29% 1.0 mph W1.6 kmh W 7.0 mph11.3 kmh 29.70 in1005.8 mb 0.00 in0.0 mm 0.00 in0.0 mm 0.00 in0.0 mm
01:05 PM 100.6°F38.1°C 60.5°F15.8°C 27% 2.0 mph NNW3.2 kmh NNW 9.0 mph14.5 kmh 29.70 in1005.8 mb 0.00 in0.0 mm 0.00 in0.0 mm 0.00 in0.0 mm
01:10 PM 100.6°F38.1°C 59.4°F15.2°C 26% 2.0 mph W3.2 kmh W 8.0 mph12.9 kmh 29.70 in1005.8 mb 0.00 in0.0 mm 0.00 in0.0 mm 0.00 in0.0 mm
01:15 PM 101.0°F38.3°C 60.8°F16.0°C 27% 1.0 mph NW1.6 kmh NW 5.0 mph8.0 kmh 29.69 in1005.4 mb 0.00 in0.0 mm 0.00 in0.0 mm 0.00 in0.0 mm
01:20 PM 101.8°F38.8°C 61.5°F16.4°C 27% 1.0 mph NW1.6 kmh NW 9.0 mph14.5 kmh 29.69 in1005.4 mb 0.00 in0.0 mm 0.00 in0.0 mm 0.00 in0.0 mm
01:25 PM 101.0°F38.3°C 63.8°F17.7°C 30% 1.0 mph NNW1.6 kmh NNW 8.0 mph12.9 kmh 29.69 in1005.4 mb 0.00 in0.0 mm 0.00 in0.0 mm 0.00 in0.0 mm
01:30 PM 100.9°F38.3°C 60.7°F15.9°C 27% Calm Calm 3.0 mph4.8 kmh 29.69 in1005.4 mb 0.00 in0.0 mm 0.00 in0.0 mm 0.00 in0.0 mm
01:35 PM 101.8°F38.8°C 61.5°F16.4°C 27% Calm Calm 1.0 mph1.6 kmh 29.69 in1005.4 mb 0.00 in0.0 mm 0.00 in0.0 mm 0.00 in0.0 mm
01:40 PM 101.2°F38.4°C 62.0°F16.7°C 28% Calm Calm 5.0 mph8.0 kmh 29.69 in1005.4 mb 0.00 in0.0 mm 0.00 in0.0 mm 0.00 in0.0 mm
01:45 PM 99.7°F37.6°C 62.7°F17.1°C 30% Calm Calm 3.0 mph4.8 kmh 29.68 in1005.1 mb 0.00 in0.0 mm 0.00 in0.0 mm 0.00 in0.0 mm
01:50 PM 98.9°F37.2°C 62.9°F17.2°C 31% 1.0 mph SSW1.6 kmh SSW 5.0 mph8.0 kmh 29.68 in1005.1 mb 0.00 in0.0 mm 0.00 in0.0 mm 0.00 in0.0 mm
01:55 PM 99.5°F37.5°C 64.3°F17.9°C 32% 1.0 mph WNW1.6 kmh WNW 7.0 mph11.3 kmh 29.68 in1005.1 mb 0.00 in0.0 mm 0.00 in0.0 mm 0.00 in0.0 mm
02:00 PM 99.9°F37.7°C 62.8°F17.1°C 30% Calm Calm 5.0 mph8.0 kmh 29.67 in1004.7 mb 0.00 in0.0 mm 0.00 in0.0 mm 0.00 in0.0 mm
02:05 PM 100.7°F38.2°C 64.5°F18.1°C 31% Calm Calm 1.0 mph1.6 kmh 29.67 in1004.7 mb 0.00 in0.0 mm 0.00 in0.0 mm 0.00 in0.0 mm
02:10 PM 101.6°F38.7°C 63.3°F17.4°C 29% Calm Calm 1.0 mph1.6 kmh 29.67 in1004.7 mb 0.00 in0.0 mm 0.00 in0.0 mm 0.00 in0.0 mm
02:15 PM 101.4°F38.6°C 62.2°F16.8°C 28% Calm Calm 2.0 mph3.2 kmh 29.67 in1004.7 mb 0.00 in0.0 mm 0.00 in0.0 mm 0.00 in0.0 mm
02:20 PM 101.3°F38.5°C 63.1°F17.3°C 29% Calm Calm 2.0 mph3.2 kmh 29.67 in1004.7 mb 0.00 in0.0 mm 0.00 in0.0 mm 0.00 in0.0 mm
02:25 PM 101.1°F38.4°C 64.8°F18.2°C 31% Calm Calm 2.0 mph3.2 kmh 29.67 in1004.7 mb 0.00 in0.0 mm 0.00 in0.0 mm 0.00 in0.0 mm
02:30 PM 100.8°F38.2°C 62.7°F17.1°C 29% Calm Calm 2.0 mph3.2 kmh 29.67 in1004.7 mb 0.00 in0.0 mm 0.00 in0.0 mm 0.00 in0.0 mm
02:35 PM 100.4°F38.0°C 64.2°F17.9°C 31% Calm Calm 1.0 mph1.6 kmh 29.67 in1004.7 mb 0.00 in0.0 mm 0.00 in0.0 mm 0.00 in0.0 mm
02:40 PM 100.2°F37.9°C 63.1°F17.3°C 30% Calm Calm 1.0 mph1.6 kmh 29.67 in1004.7 mb 0.00 in0.0 mm 0.00 in0.0 mm 0.00 in0.0 mm
02:45 PM 99.8°F37.7°C 62.8°F17.1°C 30% Calm Calm 3.0 mph4.8 kmh 29.67 in1004.7 mb 0.00 in0.0 mm 0.00 in0.0 mm 0.00 in0.0 mm
02:50 PM 98.7°F37.1°C 62.8°F17.1°C 31% 1.0 mph SSW1.6 kmh SSW 8.0 mph12.9 kmh 29.67 in1004.7 mb 0.00 in0.0 mm 0.00 in0.0 mm 0.00 in0.0 mm
02:55 PM 98.3°F36.8°C 63.3°F17.4°C 32% 2.0 mph SSW3.2 kmh SSW 7.0 mph11.3 kmh 29.67 in1004.7 mb 0.00 in0.0 mm 0.00 in0.0 mm 0.00 in0.0 mm
03:00 PM 98.5°F36.9°C 63.5°F17.5°C 32% Calm Calm 4.0 mph6.4 kmh 29.67 in1004.7 mb 0.00 in0.0 mm 0.00 in0.0 mm 0.00 in0.0 mm
03:05 PM 99.4°F37.4°C 63.4°F17.4°C 31% 1.0 mph SSW1.6 kmh SSW 4.0 mph6.4 kmh 29.67 in1004.7 mb 0.00 in0.0 mm 0.00 in0.0 mm 0.00 in0.0 mm
03:10 PM 98.6°F37.0°C 62.7°F17.1°C 31% 1.0 mph SSW1.6 kmh SSW 6.0 mph9.7 kmh 29.67 in1004.7 mb 0.00 in0.0 mm 0.00 in0.0 mm 0.00 in0.0 mm
03:15 PM 98.9°F37.2°C 62.9°F17.2°C 31% 1.0 mph SW1.6 kmh SW 4.0 mph6.4 kmh 29.67 in1004.7 mb 0.00 in0.0 mm 0.00 in0.0 mm 0.00 in0.0 mm
03:20 PM 99.2°F37.3°C 63.2°F17.3°C 31% Calm Calm 3.0 mph4.8 kmh 29.67 in1004.7 mb 0.00 in0.0 mm 0.00 in0.0 mm 0.00 in0.0 mm
03:25 PM 99.7°F37.6°C 62.7°F17.1°C 30% Calm Calm 4.0 mph6.4 kmh 29.67 in1004.7 mb 0.00 in0.0 mm 0.00 in0.0 mm 0.00 in0.0 mm
03:30 PM 99.8°F37.7°C 61.8°F16.6°C 29% 1.0 mph NW1.6 kmh NW 5.0 mph8.0 kmh 29.67 in1004.7 mb 0.00 in0.0 mm 0.00 in0.0 mm 0.00 in0.0 mm
03:35 PM 99.6°F37.6°C 61.6°F16.4°C 29% Calm Calm 2.0 mph3.2 kmh 29.67 in1004.7 mb 0.00 in0.0 mm 0.00 in0.0 mm 0.00 in0.0 mm
03:40 PM 98.5°F36.9°C 61.6°F16.4°C 30% Calm Calm 2.0 mph3.2 kmh 29.67 in1004.7 mb 0.00 in0.0 mm 0.00 in0.0 mm 0.00 in0.0 mm
03:45 PM 97.7°F36.5°C 61.9°F16.6°C 31% 1.0 mph SSW1.6 kmh SSW 6.0 mph9.7 kmh 29.66 in1004.4 mb 0.00 in0.0 mm 0.00 in0.0 mm 0.00 in0.0 mm
03:50 PM 97.8°F36.6°C 61.0°F16.1°C 30% 1.0 mph SSW1.6 kmh SSW 5.0 mph8.0 kmh 29.66 in1004.4 mb 0.00 in0.0 mm 0.00 in0.0 mm 0.00 in0.0 mm
03:55 PM 98.6°F37.0°C 61.7°F16.5°C 30% 1.0 mph SSW1.6 kmh SSW 5.0 mph8.0 kmh 29.66 in1004.4 mb 0.00 in0.0 mm 0.00 in0.0 mm 0.00 in0.0 mm
04:00 PM 98.2°F36.8°C 61.4°F16.3°C 30% Calm Calm 5.0 mph8.0 kmh 29.66 in1004.4 mb 0.00 in0.0 mm 0.00 in0.0 mm 0.00 in0.0 mm
04:05 PM 98.2°F36.8°C 59.4°F15.2°C 28% 2.0 mph SSW3.2 kmh SSW 8.0 mph12.9 kmh 29.66 in1004.4 mb 0.00 in0.0 mm 0.00 in0.0 mm 0.00 in0.0 mm
04:10 PM 97.5°F36.4°C 62.6°F17.0°C 32% 1.0 mph SSW1.6 kmh SSW 4.0 mph6.4 kmh 29.66 in1004.4 mb 0.00 in0.0 mm 0.00 in0.0 mm 0.00 in0.0 mm
04:15 PM 99.4°F37.4°C 62.4°F16.9°C 30% Calm Calm 3.0 mph4.8 kmh 29.66 in1004.4 mb 0.00 in0.0 mm 0.00 in0.0 mm 0.00 in0.0 mm
04:20 PM 98.3°F36.8°C 61.5°F16.4°C 30% 1.0 mph SSW1.6 kmh SSW 5.0 mph8.0 kmh 29.66 in1004.4 mb 0.00 in0.0 mm 0.00 in0.0 mm 0.00 in0.0 mm
04:25 PM 98.3°F36.8°C 61.5°F16.4°C 30% 1.0 mph SSW1.6 kmh SSW 4.0 mph6.4 kmh 29.66 in1004.4 mb 0.00 in0.0 mm 0.00 in0.0 mm 0.00 in0.0 mm
04:30 PM 98.5°F36.9°C 62.6°F17.0°C 31% Calm Calm 1.0 mph1.6 kmh 29.66 in1004.4 mb 0.00 in0.0 mm 0.00 in0.0 mm 0.00 in0.0 mm
04:35 PM 99.3°F37.4°C 61.4°F16.3°C 29% Calm Calm 4.0 mph6.4 kmh 29.66 in1004.4 mb 0.00 in0.0 mm 0.00 in0.0 mm 0.00 in0.0 mm
04:40 PM 98.9°F37.2°C 61.0°F16.1°C 29% Calm Calm 3.0 mph4.8 kmh 29.66 in1004.4 mb 0.00 in0.0 mm 0.00 in0.0 mm 0.00 in0.0 mm
04:45 PM 98.0°F36.7°C 62.1°F16.7°C 31% 1.0 mph SSW1.6 kmh SSW 4.0 mph6.4 kmh 29.64 in1003.7 mb 0.00 in0.0 mm 0.00 in0.0 mm 0.00 in0.0 mm
04:50 PM 97.7°F36.5°C 61.9°F16.6°C 31% Calm Calm 6.0 mph9.7 kmh 29.64 in1003.7 mb 0.00 in0.0 mm 0.00 in0.0 mm 0.00 in0.0 mm
04:55 PM 97.6°F36.4°C 60.9°F16.1°C 30% 2.0 mph SSW3.2 kmh SSW 4.0 mph6.4 kmh 29.64 in1003.7 mb 0.00 in0.0 mm 0.00 in0.0 mm 0.00 in0.0 mm
05:00 PM 97.1°F36.2°C 60.4°F15.8°C 30% 2.0 mph SSW3.2 kmh SSW 6.0 mph9.7 kmh 29.64 in1003.7 mb 0.00 in0.0 mm 0.00 in0.0 mm 0.00 in0.0 mm
05:05 PM 97.0°F36.1°C 61.3°F16.3°C 31% 1.0 mph SSW1.6 kmh SSW 6.0 mph9.7 kmh 29.64 in1003.7 mb 0.00 in0.0 mm 0.00 in0.0 mm 0.00 in0.0 mm
05:10 PM 97.2°F36.2°C 61.5°F16.4°C 31% 3.0 mph S4.8 kmh S 9.0 mph14.5 kmh 29.64 in1003.7 mb 0.00 in0.0 mm 0.00 in0.0 mm 0.00 in0.0 mm
05:15 PM 97.2°F36.2°C 61.5°F16.4°C 31% 3.0 mph S4.8 kmh S 11.0 mph17.7 kmh 29.63 in1003.4 mb 0.00 in0.0 mm 0.00 in0.0 mm 0.00 in0.0 mm
05:20 PM 96.8°F36.0°C 61.1°F16.2°C 31% 4.0 mph S6.4 kmh S 10.0 mph16.1 kmh 29.63 in1003.4 mb 0.00 in0.0 mm 0.00 in0.0 mm 0.00 in0.0 mm
05:25 PM 96.1°F35.6°C 60.5°F15.8°C 31% 6.0 mph SSE9.7 kmh SSE 15.0 mph24.1 kmh 29.63 in1003.4 mb 0.00 in0.0 mm 0.00 in0.0 mm 0.00 in0.0 mm
05:30 PM 95.1°F35.1°C 61.4°F16.3°C 33% 8.0 mph SSE12.9 kmh SSE 15.0 mph24.1 kmh 29.63 in1003.4 mb 0.00 in0.0 mm 0.00 in0.0 mm 0.00 in0.0 mm
05:35 PM 94.5°F34.7°C 61.7°F16.5°C 34% 6.0 mph SSE9.7 kmh SSE 14.0 mph22.5 kmh 29.63 in1003.4 mb 0.00 in0.0 mm 0.00 in0.0 mm 0.00 in0.0 mm
05:40 PM 94.3°F34.6°C 60.7°F15.9°C 33% 6.0 mph SSE9.7 kmh SSE 12.0 mph19.3 kmh 29.63 in1003.4 mb 0.00 in0.0 mm 0.00 in0.0 mm 0.00 in0.0 mm
05:45 PM 94.3°F34.6°C 61.6°F16.4°C 34% 6.0 mph SSE9.7 kmh SSE 12.0 mph19.3 kmh 29.63 in1003.4 mb 0.00 in0.0 mm 0.00 in0.0 mm 0.00 in0.0 mm
05:50 PM 94.3°F34.6°C 61.6°F16.4°C 34% 4.0 mph S6.4 kmh S 10.0 mph16.1 kmh 29.63 in1003.4 mb 0.00 in0.0 mm 0.00 in0.0 mm 0.00 in0.0 mm
05:55 PM 94.5°F34.7°C 59.1°F15.1°C 31% 3.0 mph S4.8 kmh S 9.0 mph14.5 kmh 29.63 in1003.4 mb 0.00 in0.0 mm 0.00 in0.0 mm 0.00 in0.0 mm
06:00 PM 94.5°F34.7°C 59.1°F15.1°C 31% 4.0 mph S6.4 kmh S 11.0 mph17.7 kmh 29.63 in1003.4 mb 0.00 in0.0 mm 0.00 in0.0 mm 0.00 in0.0 mm
06:05 PM 94.0°F34.4°C 59.6°F15.3°C 32% 6.0 mph SSE9.7 kmh SSE 12.0 mph19.3 kmh 29.63 in1003.4 mb 0.00 in0.0 mm 0.00 in0.0 mm 0.00 in0.0 mm
06:10 PM 93.6°F34.2°C 60.1°F15.6°C 33% 6.0 mph SSE9.7 kmh SSE 12.0 mph19.3 kmh 29.63 in1003.4 mb 0.00 in0.0 mm 0.00 in0.0 mm 0.00 in0.0 mm
06:15 PM 93.3°F34.1°C 60.7°F15.9°C 34% 6.0 mph SE9.7 kmh SE 12.0 mph19.3 kmh 29.64 in1003.7 mb 0.00 in0.0 mm 0.00 in0.0 mm 0.00 in0.0 mm
06:20 PM 92.9°F33.8°C 61.2°F16.2°C 35% 4.0 mph SE6.4 kmh SE 8.0 mph12.9 kmh 29.64 in1003.7 mb 0.00 in0.0 mm 0.00 in0.0 mm 0.00 in0.0 mm
06:25 PM 92.7°F33.7°C 61.0°F16.1°C 35% 4.0 mph SE6.4 kmh SE 12.0 mph19.3 kmh 29.64 in1003.7 mb 0.00 in0.0 mm 0.00 in0.0 mm 0.00 in0.0 mm
06:30 PM 92.2°F33.4°C 60.6°F15.9°C 35% 4.0 mph SSE6.4 kmh SSE 12.0 mph19.3 kmh 29.64 in1003.7 mb 0.00 in0.0 mm 0.00 in0.0 mm 0.00 in0.0 mm
06:35 PM 91.9°F33.3°C 61.1°F16.2°C 36% 2.0 mph SSE3.2 kmh SSE 9.0 mph14.5 kmh 29.64 in1003.7 mb 0.00 in0.0 mm 0.00 in0.0 mm 0.00 in0.0 mm
06:40 PM 91.9°F33.3°C 61.1°F16.2°C 36% Calm Calm 4.0 mph6.4 kmh 29.64 in1003.7 mb 0.00 in0.0 mm 0.00 in0.0 mm 0.00 in0.0 mm
06:45 PM 91.8°F33.2°C 61.0°F16.1°C 36% Calm Calm 4.0 mph6.4 kmh 29.65 in1004.1 mb 0.00 in0.0 mm 0.00 in0.0 mm 0.00 in0.0 mm
06:50 PM 91.4°F33.0°C 60.6°F15.9°C 36% Calm Calm 2.0 mph3.2 kmh 29.65 in1004.1 mb 0.00 in0.0 mm 0.00 in0.0 mm 0.00 in0.0 mm
06:55 PM 91.1°F32.8°C 59.6°F15.3°C 35% Calm Calm 4.0 mph6.4 kmh 29.65 in1004.1 mb 0.00 in0.0 mm 0.00 in0.0 mm 0.00 in0.0 mm
07:00 PM 91.0°F32.8°C 60.3°F15.7°C 36% 1.0 mph ESE1.6 kmh ESE 6.0 mph9.7 kmh 29.65 in1004.1 mb 0.00 in0.0 mm 0.00 in0.0 mm 0.00 in0.0 mm
07:05 PM 90.8°F32.7°C 60.1°F15.6°C 36% 1.0 mph ESE1.6 kmh ESE 7.0 mph11.3 kmh 29.65 in1004.1 mb 0.00 in0.0 mm 0.00 in0.0 mm 0.00 in0.0 mm
07:10 PM 90.5°F32.5°C 59.1°F15.1°C 35% 1.0 mph E1.6 kmh E 5.0 mph8.0 kmh 29.65 in1004.1 mb 0.00 in0.0 mm 0.00 in0.0 mm 0.00 in0.0 mm
07:15 PM 89.9°F32.2°C 59.3°F15.2°C 36% 4.0 mph ESE6.4 kmh ESE 8.0 mph12.9 kmh 29.66 in1004.4 mb 0.00 in0.0 mm 0.00 in0.0 mm 0.00 in0.0 mm
07:20 PM 89.3°F31.8°C 58.8°F14.9°C 36% 4.0 mph ESE6.4 kmh ESE 10.0 mph16.1 kmh 29.66 in1004.4 mb 0.00 in0.0 mm 0.00 in0.0 mm 0.00 in0.0 mm
07:25 PM 89.3°F31.8°C 58.0°F14.4°C 35% 1.0 mph NE1.6 kmh NE 3.0 mph4.8 kmh 29.66 in1004.4 mb 0.00 in0.0 mm 0.00 in0.0 mm 0.00 in0.0 mm
07:30 PM 89.2°F31.8°C 60.2°F15.7°C 38% 2.0 mph SW3.2 kmh SW 5.0 mph8.0 kmh 29.66 in1004.4 mb 0.00 in0.0 mm 0.00 in0.0 mm 0.00 in0.0 mm
07:35 PM 88.9°F31.6°C 60.0°F15.6°C 38% Calm Calm 2.0 mph3.2 kmh 29.66 in1004.4 mb 0.00 in0.0 mm 0.00 in0.0 mm 0.00 in0.0 mm
07:40 PM 88.5°F31.4°C 58.9°F14.9°C 37% Calm Calm 1.0 mph1.6 kmh 29.66 in1004.4 mb 0.00 in0.0 mm 0.00 in0.0 mm 0.00 in0.0 mm
07:45 PM 88.3°F31.3°C 60.2°F15.7°C 39% 1.0 mph ESE1.6 kmh ESE 5.0 mph8.0 kmh 29.67 in1004.7 mb 0.00 in0.0 mm 0.00 in0.0 mm 0.00 in0.0 mm
07:50 PM 88.0°F31.1°C 60.6°F15.9°C 40% Calm Calm 2.0 mph3.2 kmh 29.67 in1004.7 mb 0.00 in0.0 mm 0.00 in0.0 mm 0.00 in0.0 mm
07:55 PM 87.6°F30.9°C 60.3°F15.7°C 40% Calm Calm 1.0 mph1.6 kmh 29.67 in1004.7 mb 0.00 in0.0 mm 0.00 in0.0 mm 0.00 in0.0 mm
08:00 PM 86.8°F30.4°C 60.2°F15.7°C 41% 1.0 mph WSW1.6 kmh WSW 5.0 mph8.0 kmh 29.67 in1004.7 mb 0.00 in0.0 mm 0.00 in0.0 mm 0.00 in0.0 mm
08:05 PM 86.3°F30.2°C 61.1°F16.2°C 43% 1.0 mph SW1.6 kmh SW 4.0 mph6.4 kmh 29.67 in1004.7 mb 0.00 in0.0 mm 0.00 in0.0 mm 0.00 in0.0 mm
08:10 PM 85.8°F29.9°C 60.7°F15.9°C 43% Calm Calm 3.0 mph4.8 kmh 29.67 in1004.7 mb 0.00 in0.0 mm 0.00 in0.0 mm 0.00 in0.0 mm
08:15 PM 85.2°F29.6°C 61.4°F16.3°C 45% Calm Calm 1.0 mph1.6 kmh 29.69 in1005.4 mb 0.00 in0.0 mm 0.00 in0.0 mm 0.00 in0.0 mm
08:20 PM 84.5°F29.2°C 61.4°F16.3°C 46% Calm Calm 4.0 mph6.4 kmh 29.69 in1005.4 mb 0.00 in0.0 mm 0.00 in0.0 mm 0.00 in0.0 mm
08:25 PM 83.9°F28.8°C 61.5°F16.4°C 47% Calm Calm 3.0 mph4.8 kmh 29.69 in1005.4 mb 0.00 in0.0 mm 0.00 in0.0 mm 0.00 in0.0 mm
08:30 PM 83.3°F28.5°C 60.9°F16.1°C 47% 1.0 mph W1.6 kmh W 3.0 mph4.8 kmh 29.69 in1005.4 mb 0.00 in0.0 mm 0.00 in0.0 mm 0.00 in0.0 mm
08:35 PM 82.9°F28.3°C 61.7°F16.5°C 49% Calm Calm 3.0 mph4.8 kmh 29.69 in1005.4 mb 0.00 in0.0 mm 0.00 in0.0 mm 0.00 in0.0 mm
08:40 PM 82.5°F28.1°C 61.4°F16.3°C 49% 1.0 mph W1.6 kmh W 3.0 mph4.8 kmh 29.69 in1005.4 mb 0.00 in0.0 mm 0.00 in0.0 mm 0.00 in0.0 mm
08:45 PM 82.0°F27.8°C 60.3°F15.7°C 48% 1.0 mph WNW1.6 kmh WNW 5.0 mph8.0 kmh 29.70 in1005.8 mb 0.00 in0.0 mm 0.00 in0.0 mm 0.00 in0.0 mm
08:50 PM 81.8°F27.7°C 60.2°F15.7°C 48% 1.0 mph WNW1.6 kmh WNW 4.0 mph6.4 kmh 29.70 in1005.8 mb 0.00 in0.0 mm 0.00 in0.0 mm 0.00 in0.0 mm
08:55 PM 81.6°F27.6°C 60.0°F15.6°C 48% Calm Calm 3.0 mph4.8 kmh 29.70 in1005.8 mb 0.00 in0.0 mm 0.00 in0.0 mm 0.00 in0.0 mm
09:00 PM 81.5°F27.5°C 59.9°F15.5°C 48% 1.0 mph W1.6 kmh W 5.0 mph8.0 kmh 29.71 in1006.1 mb 0.00 in0.0 mm 0.00 in0.0 mm 0.00 in0.0 mm
09:05 PM 81.5°F27.5°C 59.9°F15.5°C 48% 1.0 mph WNW1.6 kmh WNW 5.0 mph8.0 kmh 29.71 in1006.1 mb 0.00 in0.0 mm 0.00 in0.0 mm 0.00 in0.0 mm
09:10 PM 81.5°F27.5°C 60.5°F15.8°C 49% Calm Calm 3.0 mph4.8 kmh 29.71 in1006.1 mb 0.00 in0.0 mm 0.00 in0.0 mm 0.00 in0.0 mm
09:15 PM 81.2°F27.3°C 60.2°F15.7°C 49% 2.0 mph W3.2 kmh W 8.0 mph12.9 kmh 29.72 in1006.4 mb 0.00 in0.0 mm 0.00 in0.0 mm 0.00 in0.0 mm
09:20 PM 80.7°F27.1°C 60.3°F15.7°C 50% 2.0 mph W3.2 kmh W 7.0 mph11.3 kmh 29.72 in1006.4 mb 0.00 in0.0 mm 0.00 in0.0 mm 0.00 in0.0 mm
09:25 PM 80.2°F26.8°C 60.4°F15.8°C 51% 2.0 mph W3.2 kmh W 7.0 mph11.3 kmh 29.72 in1006.4 mb 0.00 in0.0 mm 0.00 in0.0 mm 0.00 in0.0 mm
09:30 PM 79.7°F26.5°C 60.5°F15.8°C 52% 3.0 mph WNW4.8 kmh WNW 9.0 mph14.5 kmh 29.72 in1006.4 mb 0.00 in0.0 mm 0.00 in0.0 mm 0.00 in0.0 mm
09:35 PM 79.2°F26.2°C 60.6°F15.9°C 53% 2.0 mph W3.2 kmh W 8.0 mph12.9 kmh 29.72 in1006.4 mb 0.00 in0.0 mm 0.00 in0.0 mm 0.00 in0.0 mm
09:40 PM 78.4°F25.8°C 60.4°F15.8°C 54% 3.0 mph WNW4.8 kmh WNW 10.0 mph16.1 kmh 29.72 in1006.4 mb 0.00 in0.0 mm 0.00 in0.0 mm 0.00 in0.0 mm
09:45 PM 77.7°F25.4°C 60.2°F15.7°C 55% 3.0 mph WNW4.8 kmh WNW 11.0 mph17.7 kmh 29.73 in1006.8 mb 0.00 in0.0 mm 0.00 in0.0 mm 0.00 in0.0 mm
09:50 PM 76.8°F24.9°C 60.4°F15.8°C 57% 5.0 mph W8.0 kmh W 11.0 mph17.7 kmh 29.73 in1006.8 mb 0.00 in0.0 mm 0.00 in0.0 mm 0.00 in0.0 mm
09:55 PM 76.0°F24.4°C 60.6°F15.9°C 59% 4.0 mph W6.4 kmh W 13.0 mph20.9 kmh 29.73 in1006.8 mb 0.00 in0.0 mm 0.00 in0.0 mm 0.00 in0.0 mm
10:00 PM 75.1°F23.9°C 60.7°F15.9°C 61% 5.0 mph W8.0 kmh W 14.0 mph22.5 kmh 29.74 in1007.1 mb 0.00 in0.0 mm 0.00 in0.0 mm 0.00 in0.0 mm
10:05 PM 73.7°F23.2°C 60.3°F15.7°C 63% 5.0 mph W8.0 kmh W 13.0 mph20.9 kmh 29.74 in1007.1 mb 0.00 in0.0 mm 0.00 in0.0 mm 0.00 in0.0 mm
10:10 PM 72.8°F22.7°C 60.3°F15.7°C 65% 4.0 mph WNW6.4 kmh WNW 14.0 mph22.5 kmh 29.74 in1007.1 mb 0.00 in0.0 mm 0.00 in0.0 mm 0.00 in0.0 mm
10:15 PM 72.2°F22.3°C 60.6°F15.9°C 67% 3.0 mph W4.8 kmh W 11.0 mph17.7 kmh 29.75 in1007.5 mb 0.00 in0.0 mm 0.00 in0.0 mm 0.00 in0.0 mm
10:20 PM 71.2°F21.8°C 60.5°F15.8°C 69% 4.0 mph W6.4 kmh W 15.0 mph24.1 kmh 29.75 in1007.5 mb 0.00 in0.0 mm 0.00 in0.0 mm 0.00 in0.0 mm
10:25 PM 70.4°F21.3°C 60.1°F15.6°C 70% 3.0 mph NW4.8 kmh NW 10.0 mph16.1 kmh 29.75 in1007.5 mb 0.00 in0.0 mm 0.00 in0.0 mm 0.00 in0.0 mm
10:30 PM 69.6°F20.9°C 60.2°F15.7°C 72% 3.0 mph WNW4.8 kmh WNW 11.0 mph17.7 kmh 29.76 in1007.8 mb 0.00 in0.0 mm 0.00 in0.0 mm 0.00 in0.0 mm
10:35 PM 68.9°F20.5°C 59.9°F15.5°C 73% 3.0 mph NW4.8 kmh NW 15.0 mph24.1 kmh 29.76 in1007.8 mb 0.00 in0.0 mm 0.00 in0.0 mm 0.00 in0.0 mm
10:40 PM 68.4°F20.2°C 59.8°F15.4°C 74% 3.0 mph WNW4.8 kmh WNW 10.0 mph16.1 kmh 29.76 in1007.8 mb 0.00 in0.0 mm 0.00 in0.0 mm 0.00 in0.0 mm
10:45 PM 68.1°F20.1°C 60.2°F15.7°C 76% 2.0 mph NW3.2 kmh NW 9.0 mph14.5 kmh 29.77 in1008.1 mb 0.00 in0.0 mm 0.00 in0.0 mm 0.00 in0.0 mm
10:50 PM 67.6°F19.8°C 59.8°F15.4°C 76% 3.0 mph NNW4.8 kmh NNW 12.0 mph19.3 kmh 29.77 in1008.1 mb 0.00 in0.0 mm 0.00 in0.0 mm 0.00 in0.0 mm
10:55 PM 67.5°F19.7°C 60.0°F15.6°C 77% 2.0 mph NW3.2 kmh NW 8.0 mph12.9 kmh 29.77 in1008.1 mb 0.00 in0.0 mm 0.00 in0.0 mm 0.00 in0.0 mm
11:00 PM 67.3°F19.6°C 60.2°F15.7°C 78% 3.0 mph NW4.8 kmh NW 14.0 mph22.5 kmh 29.77 in1008.1 mb 0.00 in0.0 mm 0.00 in0.0 mm 0.00 in0.0 mm
11:05 PM 67.0°F19.4°C 59.9°F15.5°C 78% 2.0 mph NW3.2 kmh NW 8.0 mph12.9 kmh 29.77 in1008.1 mb 0.00 in0.0 mm 0.00 in0.0 mm 0.00 in0.0 mm
11:10 PM 66.9°F19.4°C 60.2°F15.7°C 79% 2.0 mph NNW3.2 kmh NNW 12.0 mph19.3 kmh 29.77 in1008.1 mb 0.00 in0.0 mm 0.00 in0.0 mm 0.00 in0.0 mm
11:15 PM 66.7°F19.3°C 60.0°F15.6°C 79% 2.0 mph NNW3.2 kmh NNW 11.0 mph17.7 kmh 29.77 in1008.1 mb 0.00 in0.0 mm 0.00 in0.0 mm 0.00 in0.0 mm
11:20 PM 66.4°F19.1°C 60.0°F15.6°C 80% 3.0 mph NNW4.8 kmh NNW 10.0 mph16.1 kmh 29.77 in1008.1 mb 0.00 in0.0 mm 0.00 in0.0 mm 0.00 in0.0 mm
11:25 PM 66.4°F19.1°C 60.4°F15.8°C 81% 1.0 mph NNW1.6 kmh NNW 8.0 mph12.9 kmh 29.77 in1008.1 mb 0.00 in0.0 mm 0.00 in0.0 mm 0.00 in0.0 mm
11:30 PM 66.3°F19.1°C 60.3°F15.7°C 81% 2.0 mph NW3.2 kmh NW 10.0 mph16.1 kmh 29.78 in1008.5 mb 0.00 in0.0 mm 0.00 in0.0 mm 0.00 in0.0 mm
11:35 PM 66.2°F19.0°C 60.2°F15.7°C 81% 2.0 mph NNW3.2 kmh NNW 9.0 mph14.5 kmh 29.78 in1008.5 mb 0.00 in0.0 mm 0.00 in0.0 mm 0.00 in0.0 mm
11:40 PM 66.3°F19.1°C 60.3°F15.7°C 81% 2.0 mph NW3.2 kmh NW 9.0 mph14.5 kmh 29.78 in1008.5 mb 0.00 in0.0 mm 0.00 in0.0 mm 0.00 in0.0 mm
11:45 PM 66.2°F19.0°C 60.2°F15.7°C 81% 3.0 mph NNW4.8 kmh NNW 10.0 mph16.1 kmh 29.78 in1008.5 mb 0.00 in0.0 mm 0.00 in0.0 mm 0.00 in0.0 mm
11:50 PM 66.2°F19.0°C 60.2°F15.7°C 81% 3.0 mph NNW4.8 kmh NNW 10.0 mph16.1 kmh 29.78 in1008.5 mb 0.00 in0.0 mm 0.00 in0.0 mm 0.00 in0.0 mm
11:55 PM 66.1°F18.9°C 60.1°F15.6°C 81% 3.0 mph NNW4.8 kmh NNW 10.0 mph16.1 kmh 29.78 in1008.5 mb 0.00 in0.0 mm 0.00 in0.0 mm 0.00 in0.0 mm